createdAt,value
2019-05-25T00:01:31.940Z,75.50
2019-05-25T00:04:03.659Z,74.90
2019-05-25T00:09:08.219Z,75.60
2019-05-25T00:11:38.982Z,75.50
2019-05-25T00:14:09.852Z,74.40
2019-05-25T00:16:41.082Z,74.60
2019-05-25T00:19:11.788Z,75.40
2019-05-25T00:21:43.007Z,75.00
2019-05-25T00:24:13.893Z,74.40
2019-05-25T00:26:44.942Z,75.10
2019-05-25T00:29:15.772Z,75.30
2019-05-25T00:31:46.935Z,75.90
2019-05-25T00:34:18.754Z,76.40
2019-05-25T00:36:49.805Z,76.50
2019-05-25T00:39:20.148Z,76.60
2019-05-25T00:41:50.709Z,77.00
2019-05-25T00:44:21.077Z,77.60
2019-05-25T00:46:51.874Z,77.30
2019-05-25T00:49:22.228Z,76.90
2019-05-25T00:51:54.267Z,76.90
2019-05-25T00:54:28.087Z,75.60
2019-05-25T00:56:56.742Z,76.50
2019-05-25T00:59:27.209Z,76.40
2019-05-25T01:01:58.042Z,76.20
2019-05-25T01:04:28.671Z,75.40
2019-05-25T01:06:59.211Z,75.70
2019-05-25T01:09:29.529Z,76.80
2019-05-25T01:11:59.936Z,76.20
2019-05-25T01:14:30.358Z,76.00
2019-05-25T01:17:00.934Z,74.80
2019-05-25T01:19:31.491Z,75.60
2019-05-25T01:22:01.991Z,76.90
2019-05-25T01:24:43.898Z,77.90
2019-05-25T01:27:05.884Z,78.60
2019-05-25T01:29:36.281Z,78.90
2019-05-25T01:32:06.566Z,78.50
2019-05-25T01:34:36.827Z,79.80
2019-05-25T01:37:07.313Z,79.20
2019-05-25T01:39:37.743Z,78.20
2019-05-25T01:42:08.185Z,78.70
2019-05-25T01:44:38.499Z,79.30
2019-05-25T01:47:08.805Z,79.60
2019-05-25T01:49:40.599Z,80.60
2019-05-25T01:52:11.215Z,81.80
2019-05-25T01:54:41.601Z,82.90
2019-05-25T01:57:12.029Z,83.30
2019-05-25T01:59:42.699Z,83.80
2019-05-25T02:02:13.220Z,84.00
2019-05-25T02:04:43.574Z,84.70
2019-05-25T02:07:14.124Z,85.60
2019-05-25T02:09:44.538Z,87.80
2019-05-25T02:12:15.275Z,88.10
2019-05-25T02:14:45.652Z,89.00
2019-05-25T02:17:16.128Z,89.80
2019-05-25T02:19:46.458Z,89.90
2019-05-25T02:22:16.900Z,88.40
2019-05-25T02:24:47.288Z,87.00
2019-05-25T02:27:17.739Z,87.80
2019-05-25T02:29:48.212Z,87.20
2019-05-25T02:32:19.515Z,87.50
2019-05-25T02:34:50.012Z,87.70
2019-05-25T02:37:20.346Z,87.80
2019-05-25T02:39:50.694Z,87.40
2019-05-25T02:42:21.141Z,87.30
2019-05-25T02:44:51.515Z,86.40
2019-05-25T02:47:22.256Z,86.50
2019-05-25T02:49:52.599Z,85.80
2019-05-25T02:52:22.916Z,86.10
2019-05-25T02:54:53.354Z,86.30
2019-05-25T02:57:24.034Z,86.40
2019-05-25T02:59:54.659Z,86.20
2019-05-25T03:02:24.948Z,85.50
2019-05-25T03:04:57.461Z,86.10
2019-05-25T03:07:28.527Z,86.50
2019-05-25T03:10:01.557Z,86.60
2019-05-25T03:12:32.024Z,86.60
2019-05-25T03:15:02.663Z,86.20
2019-05-25T03:17:33.130Z,86.00
2019-05-25T03:20:04.110Z,85.90
2019-05-25T03:22:37.723Z,85.10
2019-05-25T03:25:08.115Z,84.60
2019-05-25T03:27:39.798Z,84.30
2019-05-25T03:30:12.729Z,84.30
2019-05-25T03:32:42.959Z,84.90
2019-05-25T03:35:13.473Z,85.30
2019-05-25T03:37:43.717Z,85.80
2019-05-25T03:40:14.217Z,86.50
2019-05-25T03:42:44.597Z,87.40
2019-05-25T03:45:15.186Z,88.00
2019-05-25T03:47:45.814Z,88.30
2019-05-25T03:50:16.200Z,88.30
2019-05-25T03:52:46.631Z,88.10
2019-05-25T03:55:17.159Z,87.80
2019-05-25T03:57:47.498Z,87.50
2019-05-25T04:00:40.706Z,87.80
2019-05-25T04:03:11.021Z,87.50
2019-05-25T04:05:41.330Z,88.10
2019-05-25T04:08:11.820Z,88.40
2019-05-25T04:10:42.440Z,88.30
2019-05-25T04:13:13.058Z,89.10
2019-05-25T04:15:43.576Z,89.40
2019-05-25T04:18:14.214Z,89.60
2019-05-25T04:20:44.655Z,89.00
2019-05-25T04:23:14.954Z,88.20
2019-05-25T04:25:45.291Z,88.10
2019-05-25T04:28:18.434Z,88.50
2019-05-25T04:30:48.792Z,88.60
2019-05-25T04:33:19.334Z,89.00
2019-05-25T04:35:50.032Z,89.30
2019-05-25T04:38:21.676Z,90.00
2019-05-25T04:40:52.980Z,90.40
2019-05-25T04:43:25.438Z,90.50
2019-05-25T04:45:55.820Z,90.60
2019-05-25T04:48:26.280Z,90.50
2019-05-25T04:50:56.799Z,90.30
2019-05-25T04:53:27.268Z,90.20
2019-05-25T04:55:57.817Z,90.00
2019-05-25T04:58:29.707Z,89.90
2019-05-25T05:01:00.148Z,89.60
2019-05-25T05:03:32.105Z,89.40
2019-05-25T05:06:03.595Z,89.00
2019-05-25T05:08:35.773Z,88.80
2019-05-25T05:11:09.467Z,88.60
2019-05-25T05:13:39.870Z,87.80
2019-05-25T05:16:10.168Z,87.20
2019-05-25T05:18:40.458Z,88.40
2019-05-25T05:21:10.840Z,88.40
2019-05-25T05:23:41.491Z,89.20
2019-05-25T05:26:13.339Z,88.60
2019-05-25T05:28:43.759Z,86.80
2019-05-25T05:31:23.660Z,87.70
2019-05-25T05:33:48.827Z,88.80
2019-05-25T05:36:20.983Z,88.40
2019-05-25T05:38:53.286Z,88.50
2019-05-25T05:41:23.960Z,89.00
2019-05-25T05:43:56.930Z,88.10
2019-05-25T05:46:29.271Z,86.60
2019-05-25T05:49:01.058Z,85.70
2019-05-25T05:51:35.059Z,84.50
2019-05-25T05:54:06.302Z,84.20
2019-05-25T05:56:36.837Z,83.80
2019-05-25T05:59:07.276Z,83.70
2019-05-25T06:01:38.046Z,83.80
2019-05-25T06:04:10.044Z,84.20
2019-05-25T06:06:40.416Z,84.30
2019-05-25T06:09:10.795Z,84.30
2019-05-25T06:11:41.225Z,84.40
2019-05-25T06:14:11.664Z,84.20
2019-05-25T06:16:42.242Z,84.80
2019-05-25T06:19:12.791Z,84.70
2019-05-25T06:21:43.125Z,83.70
2019-05-25T06:24:13.574Z,83.80
2019-05-25T06:26:44.147Z,83.70
2019-05-25T06:29:14.758Z,82.20
2019-05-25T06:31:46.237Z,82.40
2019-05-25T06:34:16.724Z,82.20
2019-05-25T06:36:47.094Z,81.70
2019-05-25T06:39:17.561Z,81.80
2019-05-25T06:41:48.061Z,80.10
2019-05-25T06:44:18.431Z,79.60
2019-05-25T06:46:49.074Z,78.60
2019-05-25T06:49:19.548Z,77.20
2019-05-25T06:51:50.125Z,77.10
2019-05-25T06:54:20.692Z,76.90
2019-05-25T06:56:51.400Z,76.60
2019-05-25T06:59:22.004Z,75.90
2019-05-25T07:01:53.773Z,75.00
2019-05-25T07:04:24.167Z,74.90
2019-05-25T07:06:54.423Z,75.90
2019-05-25T07:09:25.071Z,75.70
2019-05-25T07:11:55.514Z,75.60
2019-05-25T07:14:26.080Z,74.80
2019-05-25T07:16:57.683Z,75.70
2019-05-25T07:19:28.006Z,74.10
2019-05-25T07:21:58.439Z,74.60
2019-05-25T07:24:28.876Z,75.30
2019-05-25T07:26:59.165Z,74.70
2019-05-25T07:29:31.355Z,74.70
2019-05-25T07:32:02.206Z,74.90
2019-05-25T07:34:34.233Z,73.00
2019-05-25T07:37:14.415Z,72.80
2019-05-25T07:39:49.530Z,73.20
2019-05-25T07:42:22.411Z,73.80
2019-05-25T07:44:52.932Z,72.90
2019-05-25T07:47:24.726Z,72.20
2019-05-25T07:49:55.492Z,71.00
2019-05-25T07:52:27.108Z,70.90
2019-05-25T07:54:58.548Z,70.10
2019-05-25T07:57:29.106Z,69.80
2019-05-25T07:59:59.532Z,69.60
2019-05-25T08:02:30.143Z,69.70
2019-05-25T08:05:00.951Z,70.10
2019-05-25T08:07:31.335Z,69.60
2019-05-25T08:10:01.959Z,68.80
2019-05-25T08:12:33.702Z,69.10
2019-05-25T08:15:04.451Z,69.10
2019-05-25T08:17:35.232Z,67.90
2019-05-25T08:20:05.791Z,68.40
2019-05-25T08:22:36.331Z,68.20
2019-05-25T08:25:10.041Z,67.40
2019-05-25T08:27:40.584Z,67.10
2019-05-25T08:30:11.401Z,66.70
2019-05-25T08:32:42.028Z,66.10
2019-05-25T08:35:12.658Z,65.20
2019-05-25T08:37:43.241Z,65.40
2019-05-25T08:40:14.143Z,65.10
2019-05-25T08:42:44.574Z,64.90
2019-05-25T08:45:15.272Z,62.90
2019-05-25T08:47:49.077Z,62.90
2019-05-25T08:50:37.623Z,62.80
2019-05-25T08:53:01.128Z,61.40
2019-05-25T08:55:31.660Z,61.10
2019-05-25T08:58:02.279Z,60.50
2019-05-25T09:00:32.969Z,60.30
2019-05-25T09:03:03.929Z,59.40
2019-05-25T09:05:34.374Z,59.30
2019-05-25T09:08:04.859Z,59.00
2019-05-25T09:10:35.374Z,58.50
2019-05-25T09:13:08.021Z,58.20
2019-05-25T09:15:38.805Z,58.00
2019-05-25T09:18:09.322Z,57.80
2019-05-25T09:20:39.636Z,58.20
2019-05-25T09:23:10.255Z,58.40
2019-05-25T09:25:40.774Z,56.80
2019-05-25T09:28:12.206Z,56.60
2019-05-25T09:30:42.694Z,56.00
2019-05-25T09:33:13.439Z,56.00
2019-05-25T09:35:45.101Z,53.70
2019-05-25T09:38:15.582Z,54.70
2019-05-25T09:40:46.179Z,54.30
2019-05-25T09:43:16.694Z,54.60
2019-05-25T09:45:48.169Z,55.00
2019-05-25T09:48:18.740Z,54.30
2019-05-25T09:50:49.238Z,54.70
2019-05-25T09:53:20.794Z,54.30
2019-05-25T09:55:51.048Z,54.00
2019-05-25T09:58:21.499Z,53.90
2019-05-25T10:00:52.289Z,54.00
2019-05-25T10:03:22.682Z,53.70
2019-05-25T10:05:54.184Z,53.30
2019-05-25T10:08:24.720Z,52.80
2019-05-25T10:10:55.188Z,52.30
2019-05-25T10:13:26.097Z,52.00
2019-05-25T10:15:57.717Z,52.20
2019-05-25T10:18:30.225Z,53.20
2019-05-25T10:21:01.136Z,53.00
2019-05-25T10:23:31.640Z,51.90
2019-05-25T10:26:02.378Z,52.00
2019-05-25T10:28:33.874Z,51.80
2019-05-25T10:31:04.657Z,51.50
2019-05-25T10:33:38.200Z,51.80
2019-05-25T10:36:08.906Z,52.10
2019-05-25T10:38:47.339Z,51.00
2019-05-25T10:41:21.794Z,50.70
2019-05-25T10:43:52.345Z,49.60
2019-05-25T10:46:24.146Z,49.30
2019-05-25T10:48:58.774Z,49.20
2019-05-25T10:51:37.869Z,49.70
2019-05-25T10:54:10.032Z,48.30
2019-05-25T10:56:52.251Z,47.40
2019-05-25T10:59:22.851Z,46.80
2019-05-25T11:01:53.207Z,47.00
2019-05-25T11:04:23.506Z,46.80
2019-05-25T11:06:53.989Z,47.30
2019-05-25T11:09:24.814Z,47.60
2019-05-25T11:11:55.383Z,46.90
2019-05-25T11:14:27.712Z,46.00
2019-05-25T11:16:58.345Z,45.50
2019-05-25T11:19:31.159Z,45.70
2019-05-25T11:22:01.683Z,44.60
2019-05-25T11:24:32.143Z,43.80
2019-05-25T11:27:02.734Z,44.10
2019-05-25T11:29:35.724Z,43.20
2019-05-25T11:32:07.602Z,42.30
2019-05-25T11:34:38.239Z,41.20
2019-05-25T11:37:17.070Z,40.80
2019-05-25T11:39:47.644Z,42.10
2019-05-25T11:42:18.163Z,41.60
2019-05-25T11:44:48.696Z,41.30
2019-05-25T11:47:20.773Z,41.00
2019-05-25T11:49:51.185Z,40.30
2019-05-25T11:52:21.519Z,39.80
2019-05-25T11:54:52.008Z,39.60
2019-05-25T11:57:22.485Z,40.20
2019-05-25T11:59:52.942Z,40.40
2019-05-25T12:02:23.419Z,40.50
2019-05-25T12:04:56.049Z,38.60
2019-05-25T12:07:26.452Z,38.50
2019-05-25T12:09:56.929Z,39.30
2019-05-25T12:12:27.863Z,37.20
2019-05-25T12:14:58.525Z,35.20
2019-05-25T12:17:30.491Z,34.40
2019-05-25T12:20:00.909Z,35.20
2019-05-25T12:22:32.953Z,33.80
2019-05-25T12:25:03.685Z,33.90
2019-05-25T12:27:34.251Z,34.40
2019-05-25T12:30:06.745Z,33.80
2019-05-25T12:32:37.169Z,33.30
2019-05-25T12:35:08.952Z,31.10
2019-05-25T12:37:39.472Z,31.70
2019-05-25T12:40:10.416Z,30.90
2019-05-25T12:42:47.452Z,31.30
2019-05-25T12:45:21.937Z,29.80
2019-05-25T12:47:54.524Z,29.50
2019-05-25T12:50:25.238Z,29.80
2019-05-25T12:52:55.860Z,31.30
2019-05-25T12:55:26.751Z,29.60
2019-05-25T12:58:00.015Z,28.80
2019-05-25T13:00:30.482Z,28.90
2019-05-25T13:03:01.128Z,29.10
2019-05-25T13:05:34.603Z,28.50
2019-05-25T13:08:04.086Z,28.10
2019-05-25T13:10:34.670Z,27.90
2019-05-25T13:13:05.224Z,27.50
2019-05-25T13:15:36.960Z,28.90
2019-05-25T13:18:07.463Z,30.60
2019-05-25T13:20:37.904Z,30.60
2019-05-25T13:23:14.294Z,30.30
2019-05-25T13:25:45.738Z,29.20
2019-05-25T13:28:17.090Z,30.00
2019-05-25T13:30:47.618Z,29.30
2019-05-25T13:33:18.187Z,29.60
2019-05-25T13:35:48.718Z,29.00
2019-05-25T13:38:19.225Z,29.60
2019-05-25T13:40:49.836Z,29.30
2019-05-25T13:43:20.332Z,29.50
2019-05-25T13:45:50.985Z,30.00
2019-05-25T13:48:21.402Z,29.80
2019-05-25T13:50:51.944Z,30.70
2019-05-25T13:53:22.429Z,29.70
2019-05-25T13:55:52.942Z,29.20
2019-05-25T13:58:23.552Z,28.50
2019-05-25T14:00:54.199Z,28.20
2019-05-25T14:03:29.285Z,28.00
2019-05-25T14:05:59.883Z,27.80
2019-05-25T14:08:30.376Z,27.00
2019-05-25T14:11:00.901Z,27.10
2019-05-25T14:13:35.151Z,27.50
2019-05-25T14:16:07.638Z,28.60
2019-05-25T14:18:38.283Z,29.10
2019-05-25T14:21:08.786Z,29.50
2019-05-25T14:23:39.527Z,28.00
2019-05-25T14:26:10.141Z,29.80
2019-05-25T14:28:40.799Z,29.70
2019-05-25T14:31:12.632Z,28.60
2019-05-25T14:33:43.153Z,27.60
2019-05-25T14:36:13.723Z,26.70
2019-05-25T14:38:44.414Z,26.80
2019-05-25T14:41:17.370Z,25.90
2019-05-25T14:43:57.398Z,25.20
2019-05-25T14:46:30.978Z,24.80
2019-05-25T14:49:05.912Z,24.50
2019-05-25T14:51:36.612Z,24.60
2019-05-25T14:54:07.091Z,25.30
2019-05-25T14:56:40.318Z,25.20
2019-05-25T14:59:10.922Z,23.90
2019-05-25T15:01:43.852Z,25.10
2019-05-25T15:04:14.506Z,25.60
2019-05-25T15:06:44.944Z,25.00
2019-05-25T15:09:15.689Z,24.70
2019-05-25T15:11:47.441Z,24.40
2019-05-25T15:14:22.227Z,24.40
2019-05-25T15:16:56.867Z,25.30
2019-05-25T15:19:30.709Z,25.90
2019-05-25T15:22:01.256Z,26.90
2019-05-25T15:24:32.962Z,26.00
2019-05-25T15:27:03.522Z,26.60
2019-05-25T15:29:33.859Z,26.60
2019-05-25T15:32:18.862Z,27.40
2019-05-25T15:34:36.799Z,27.10
2019-05-25T15:37:07.252Z,27.10
2019-05-25T15:39:37.668Z,28.70
2019-05-25T15:42:09.283Z,30.10
2019-05-25T15:44:41.030Z,30.90
2019-05-25T15:47:11.416Z,31.70
2019-05-25T15:49:41.905Z,33.00
2019-05-25T15:52:12.220Z,33.10
2019-05-25T15:54:53.119Z,33.40
2019-05-25T15:57:23.414Z,33.30
2019-05-25T15:59:55.136Z,33.70
2019-05-25T16:02:36.159Z,34.50
2019-05-25T16:04:57.565Z,34.80
2019-05-25T16:07:28.374Z,35.70
2019-05-25T16:09:58.610Z,36.50
2019-05-25T16:12:28.976Z,36.90
2019-05-25T16:14:59.483Z,36.30
2019-05-25T16:17:29.850Z,36.20
2019-05-25T16:20:01.577Z,35.40
2019-05-25T16:22:31.935Z,35.10
2019-05-25T16:25:02.478Z,35.20
2019-05-25T16:27:32.847Z,34.90
2019-05-25T16:30:03.387Z,36.00
2019-05-25T16:32:33.887Z,35.70
2019-05-25T16:35:04.747Z,35.60
2019-05-25T16:37:35.633Z,36.30
2019-05-25T16:40:06.949Z,36.50
2019-05-25T16:42:37.474Z,36.20
2019-05-25T16:45:08.889Z,35.70
2019-05-25T16:47:39.429Z,35.60
2019-05-25T16:50:14.523Z,35.90
2019-05-25T16:52:43.124Z,37.30
2019-05-25T16:55:14.278Z,37.90
2019-05-25T16:57:44.747Z,38.30
2019-05-25T17:00:18.694Z,39.10
2019-05-25T17:02:49.474Z,38.40
2019-05-25T17:05:21.494Z,38.80
2019-05-25T17:07:52.055Z,37.70
2019-05-25T17:10:23.036Z,37.90
2019-05-25T17:12:53.391Z,37.00
2019-05-25T17:15:23.854Z,37.90
2019-05-25T17:17:55.804Z,37.90
2019-05-25T17:20:26.386Z,38.70
2019-05-25T17:22:56.846Z,39.10
2019-05-25T17:25:27.670Z,39.10
2019-05-25T17:27:58.224Z,39.40
2019-05-25T17:30:41.450Z,39.60
2019-05-25T17:33:12.337Z,38.90
2019-05-25T17:35:43.298Z,39.40
2019-05-25T17:38:13.817Z,39.50
2019-05-25T17:40:46.251Z,39.90
2019-05-25T17:43:17.061Z,38.60
2019-05-25T17:45:47.911Z,39.10
2019-05-25T17:48:18.464Z,39.10
2019-05-25T17:50:49.133Z,38.50
2019-05-25T17:53:19.754Z,39.20
2019-05-25T17:55:50.672Z,40.20
2019-05-25T17:58:21.463Z,40.60
2019-05-25T18:01:20.388Z,41.50
2019-05-25T18:04:05.626Z,41.60
2019-05-25T18:06:24.941Z,41.80
2019-05-25T18:08:55.898Z,42.30
2019-05-25T18:11:26.622Z,42.30
2019-05-25T18:13:57.647Z,42.50
2019-05-25T18:16:31.279Z,43.00
2019-05-25T18:19:02.040Z,43.10
2019-05-25T18:21:32.840Z,43.40
2019-05-25T18:24:05.516Z,43.70
2019-05-25T18:26:36.082Z,43.90
2019-05-25T18:29:06.784Z,44.40
2019-05-25T18:31:37.655Z,44.20
2019-05-25T18:34:21.148Z,44.50
2019-05-25T18:36:40.941Z,44.90
2019-05-25T18:39:11.620Z,45.20
2019-05-25T18:41:42.626Z,45.60
2019-05-25T18:44:16.119Z,45.80
2019-05-25T18:46:47.920Z,45.80
2019-05-25T18:49:18.660Z,46.60
2019-05-25T18:51:49.722Z,46.30
2019-05-25T18:54:20.776Z,46.50
2019-05-25T18:56:51.306Z,46.60
2019-05-25T18:59:22.022Z,46.50
2019-05-25T19:01:52.801Z,46.50
2019-05-25T19:04:42.284Z,46.90
2019-05-25T19:06:55.752Z,47.00
2019-05-25T19:09:26.222Z,47.10
2019-05-25T19:11:57.363Z,47.30
2019-05-25T19:14:29.383Z,47.70
2019-05-25T19:17:03.465Z,47.90
2019-05-25T19:19:38.551Z,47.80
2019-05-25T19:22:10.809Z,47.90
2019-05-25T19:24:41.930Z,48.30
2019-05-25T19:27:12.728Z,48.30
2019-05-25T19:29:48.453Z,48.70
2019-05-25T19:32:38.271Z,49.00
2019-05-25T19:35:31.237Z,49.10
2019-05-25T19:38:10.729Z,49.40
2019-05-25T19:40:41.384Z,49.70
2019-05-25T19:43:14.235Z,49.80
2019-05-25T19:45:47.386Z,50.10
2019-05-25T19:48:20.059Z,49.70
2019-05-25T19:50:59.223Z,50.10
2019-05-25T19:53:32.510Z,50.50
2019-05-25T19:56:03.563Z,51.10
2019-05-25T19:58:35.464Z,51.70
2019-05-25T20:01:28.181Z,52.00
2019-05-25T20:04:00.467Z,52.50
2019-05-25T20:06:31.338Z,53.30
2019-05-25T20:09:03.240Z,54.00
2019-05-25T20:11:36.431Z,55.00
2019-05-25T20:14:08.409Z,55.60
2019-05-25T20:16:42.915Z,56.10
2019-05-25T20:19:13.816Z,56.60
2019-05-25T20:21:45.732Z,56.90
2019-05-25T20:24:17.212Z,57.30
2019-05-25T20:26:51.547Z,57.80
2019-05-25T20:29:25.344Z,58.20
2019-05-25T20:31:56.931Z,58.80
2019-05-25T20:34:28.810Z,59.00
2019-05-25T20:36:59.409Z,59.50
2019-05-25T20:39:29.949Z,59.60
2019-05-25T20:42:02.507Z,60.10
2019-05-25T20:44:35.234Z,60.40
2019-05-25T20:47:05.996Z,60.60
2019-05-25T20:49:45.509Z,60.90
2019-05-25T20:52:23.714Z,61.20
2019-05-25T20:54:57.185Z,61.40
2019-05-25T20:57:29.366Z,61.80
2019-05-25T21:00:00.231Z,62.20
2019-05-25T21:02:30.833Z,62.30
2019-05-25T21:05:01.458Z,61.90
2019-05-25T21:07:32.103Z,63.10
2019-05-25T21:10:05.008Z,62.60
2019-05-25T21:12:36.063Z,62.70
2019-05-25T21:15:08.706Z,62.80
2019-05-25T21:17:40.523Z,63.40
2019-05-25T21:20:11.405Z,63.80
2019-05-25T21:22:42.029Z,64.10
2019-05-25T21:25:13.020Z,64.40
2019-05-25T21:27:43.716Z,64.50
2019-05-25T21:30:15.112Z,64.50
2019-05-25T21:32:48.031Z,64.70
2019-05-25T21:35:19.310Z,64.50
2019-05-25T21:37:50.024Z,64.80
2019-05-25T21:40:20.505Z,65.50
2019-05-25T21:42:51.347Z,65.50
2019-05-25T21:45:22.157Z,65.60
2019-05-25T21:47:56.004Z,65.40
2019-05-25T21:50:25.990Z,65.40
2019-05-25T21:52:56.771Z,65.30
2019-05-25T21:55:27.345Z,65.50
2019-05-25T21:57:57.740Z,65.70
2019-05-25T22:00:29.401Z,66.30
2019-05-25T22:03:01.467Z,66.70
2019-05-25T22:05:31.913Z,66.80
2019-05-25T22:08:02.451Z,67.30
2019-05-25T22:10:32.831Z,67.50
2019-05-25T22:13:03.179Z,67.50
2019-05-25T22:15:34.076Z,67.90
2019-05-25T22:18:04.545Z,67.80
2019-05-25T22:20:35.392Z,67.90
2019-05-25T22:23:07.226Z,68.40
2019-05-25T22:25:37.724Z,68.80
2019-05-25T22:28:08.392Z,68.90
2019-05-25T22:30:38.945Z,68.60
2019-05-25T22:33:09.425Z,68.50
2019-05-25T22:35:39.886Z,68.70
2019-05-25T22:38:10.415Z,68.30
2019-05-25T22:40:40.817Z,68.00
2019-05-25T22:43:12.690Z,68.90
2019-05-25T22:45:44.259Z,68.30
2019-05-25T22:48:14.617Z,67.90
2019-05-25T22:50:45.295Z,68.00
2019-05-25T22:53:16.013Z,68.60
2019-05-25T22:55:46.634Z,68.00
2019-05-25T22:58:18.293Z,67.70
2019-05-25T23:00:48.766Z,68.60
2019-05-25T23:03:19.351Z,68.80
2019-05-25T23:05:49.902Z,69.10
2019-05-25T23:08:20.530Z,68.90
2019-05-25T23:10:51.035Z,69.90
2019-05-25T23:13:21.357Z,70.50
2019-05-25T23:15:53.197Z,71.00
2019-05-25T23:18:23.719Z,71.40
2019-05-25T23:20:55.206Z,71.80
2019-05-25T23:23:28.319Z,71.80
2019-05-25T23:25:58.918Z,73.10
2019-05-25T23:28:29.514Z,73.00
2019-05-25T23:31:00.011Z,73.30
2019-05-25T23:33:30.290Z,72.70
2019-05-25T23:36:00.893Z,72.60
2019-05-25T23:38:31.366Z,72.80
2019-05-25T23:41:01.719Z,73.40
2019-05-25T23:43:32.118Z,73.70
2019-05-25T23:46:02.807Z,73.90
2019-05-25T23:48:33.325Z,74.30
2019-05-25T23:51:03.621Z,74.80
2019-05-25T23:53:35.007Z,75.10
2019-05-25T23:56:05.389Z,75.30
2019-05-25T23:58:35.800Z,75.50
